Time;durP1;ratioP1;P1;durP2;ratioP2;P2;SDS_P1;SDS_P2;PMS_P1;PMS_P2;Temp;Humidity;BMP_temperature;BMP_pressure;BME280_temperature;BME280_humidity;BME280_pressure;Samples;Min_cycle;Max_cycle;Signal;HPM_P1;HPM_P2
2021/06/27 00:01:55;;;;;;;;;;;21.60;80.90;;;;;;4345101;33;40257;-78
2021/06/27 00:04:22;;;;;;;;;;;21.50;80.90;;;;;;4344057;33;44536;-77
2021/06/27 00:06:49;;;;;;;;;;;21.50;80.90;;;;;;4345215;33;40317;-78
2021/06/27 00:09:19;;;;;;;;;;;21.60;80.90;;;;;;4343820;33;44577;-78
2021/06/27 00:11:46;;;;;;;;;;;21.60;80.90;;;;;;4344802;33;43268;-78
2021/06/27 00:14:14;;;;;;;;;;;21.50;80.80;;;;;;4344898;33;42536;-78
2021/06/27 00:16:44;;;;;;;;;;;21.50;80.80;;;;;;4343997;33;36457;-78
2021/06/27 00:19:11;;;;;;;;;;;21.50;80.80;;;;;;4344576;33;43992;-77
2021/06/27 00:21:41;;;;;;;;;;;21.50;80.80;;;;;;4331122;33;47003;-78
2021/06/27 00:24:08;;;;;;;;;;;21.50;80.70;;;;;;4331577;33;42515;-78
2021/06/27 00:26:35;;;;;;;;;;;21.50;80.70;;;;;;4345057;33;44587;-77
2021/06/27 00:29:03;;;;;;;;;;;21.50;80.60;;;;;;4344992;33;44609;-77
2021/06/27 00:31:30;;;;;;;;;;;21.50;80.60;;;;;;4345597;33;42553;-77
2021/06/27 00:33:57;;;;;;;;;;;21.40;80.50;;;;;;4346591;33;43639;-78
2021/06/27 00:36:24;;;;;;;;;;;21.40;80.50;;;;;;4346186;33;42271;-78
2021/06/27 00:38:54;;;;;;;;;;;21.40;81.20;;;;;;4348191;33;20755;-78
2021/06/27 00:41:21;;;;;;;;;;;21.40;80.40;;;;;;4346299;33;42764;-78
2021/06/27 00:43:50;;;;;;;;;;;21.40;80.40;;;;;;4348537;33;20075;-78
2021/06/27 00:46:17;;;;;;;;;;;21.40;80.30;;;;;;4334034;33;43556;-78
2021/06/27 00:48:47;;;;;;;;;;;21.40;80.30;;;;;;4347611;33;23767;-77
2021/06/27 00:51:17;;;;;;;;;;;21.30;80.20;;;;;;4347689;33;44617;-77
2021/06/27 00:53:44;;;;;;;;;;;21.40;80.30;;;;;;4333787;33;42850;-77
2021/06/27 00:56:11;;;;;;;;;;;21.30;80.20;;;;;;4347265;33;43384;-78
2021/06/27 00:58:38;;;;;;;;;;;21.30;80.20;;;;;;4347383;33;44939;-78
2021/06/27 01:01:07;;;;;;;;;;;21.30;80.20;;;;;;4347397;33;43422;-78
2021/06/27 01:03:34;;;;;;;;;;;21.30;80.20;;;;;;4333559;33;44437;-78
2021/06/27 01:06:01;;;;;;;;;;;21.30;80.20;;;;;;4345926;33;44470;-78
2021/06/27 01:08:29;;;;;;;;;;;21.30;80.20;;;;;;4333657;33;45166;-78
2021/06/27 01:10:59;;;;;;;;;;;21.30;80.20;;;;;;4346961;33;43627;-78
2021/06/27 01:13:29;;;;;;;;;;;21.30;80.20;;;;;;4347368;33;44329;-77
2021/06/27 01:15:57;;;;;;;;;;;21.20;80.10;;;;;;4346693;33;20038;-78
2021/06/27 01:18:27;;;;;;;;;;;21.20;80.00;;;;;;4334710;33;30563;-78
2021/06/27 01:20:54;;;;;;;;;;;21.30;80.00;;;;;;4348260;33;20001;-79
2021/06/27 01:23:24;;;;;;;;;;;21.20;79.90;;;;;;4346855;33;42392;-78
2021/06/27 01:25:52;;;;;;;;;;;21.20;79.80;;;;;;4347491;33;25709;-78
2021/06/27 01:28:20;;;;;;;;;;;21.20;79.80;;;;;;4348092;33;20005;-79
2021/06/27 01:30:50;;;;;;;;;;;21.20;79.80;;;;;;4347676;33;20027;-78
2021/06/27 01:33:19;;;;;;;;;;;21.20;79.70;;;;;;4333374;33;43684;-79
2021/06/27 01:35:50;;;;;;;;;;;21.20;79.70;;;;;;4333616;33;26536;-79
2021/06/27 01:38:17;;;;;;;;;;;21.10;79.60;;;;;;4332941;33;44973;-79
2021/06/27 01:40:44;;;;;;;;;;;21.10;79.50;;;;;;4334834;33;20006;-78
2021/06/27 01:43:14;;;;;;;;;;;21.10;79.60;;;;;;4347204;33;20402;-78
2021/06/27 01:45:45;;;;;;;;;;;21.10;79.60;;;;;;4347212;33;26625;-78
2021/06/27 01:48:13;;;;;;;;;;;21.10;79.60;;;;;;4347739;33;20021;-78
2021/06/27 01:50:41;;;;;;;;;;;21.10;79.70;;;;;;4345864;33;28313;-78
2021/06/27 01:53:09;;;;;;;;;;;21.10;79.60;;;;;;4346681;33;20015;-78
2021/06/27 01:55:40;;;;;;;;;;;21.10;79.60;;;;;;4333561;33;20017;-78
2021/06/27 01:58:07;;;;;;;;;;;21.10;79.60;;;;;;4347579;33;20009;-79
2021/06/27 02:00:38;;;;;;;;;;;21.10;79.60;;;;;;4346977;33;20009;-79
2021/06/27 02:03:05;;;;;;;;;;;21.00;79.50;;;;;;4346164;33;42675;-78
2021/06/27 02:05:35;;;;;;;;;;;21.00;79.50;;;;;;4347683;33;20459;-78
2021/06/27 02:08:02;;;;;;;;;;;21.00;79.50;;;;;;4346799;33;28551;-79
2021/06/27 02:10:30;;;;;;;;;;;21.00;79.50;;;;;;4346822;33;20527;-79
2021/06/27 02:12:58;;;;;;;;;;;21.00;79.50;;;;;;4345854;33;43157;-78
2021/06/27 02:15:29;;;;;;;;;;;21.00;79.50;;;;;;4345960;33;20021;-78
2021/06/27 02:17:59;;;;;;;;;;;21.00;79.60;;;;;;4333181;33;43420;-77
2021/06/27 02:20:27;;;;;;;;;;;21.00;79.60;;;;;;4345151;33;24902;-78
2021/06/27 02:22:54;;;;;;;;;;;21.00;79.60;;;;;;4347062;33;20015;-78
2021/06/27 02:25:24;;;;;;;;;;;21.00;79.70;;;;;;4332917;33;26774;-78
2021/06/27 02:27:53;;;;;;;;;;;21.00;79.60;;;;;;4345293;33;29058;-78
2021/06/27 02:30:21;;;;;;;;;;;21.00;79.60;;;;;;4345844;33;43346;-77
2021/06/27 02:32:51;;;;;;;;;;;20.90;79.60;;;;;;4345934;33;30922;-78
2021/06/27 02:35:18;;;;;;;;;;;20.90;79.50;;;;;;4344858;33;43793;-79
2021/06/27 02:37:46;;;;;;;;;;;20.90;79.50;;;;;;4333981;33;20045;-78
2021/06/27 02:40:13;;;;;;;;;;;20.90;79.60;;;;;;4332642;33;28521;-77
2021/06/27 02:42:41;;;;;;;;;;;20.90;79.50;;;;;;4346519;33;20019;-78
2021/06/27 02:45:11;;;;;;;;;;;20.90;79.50;;;;;;4345975;33;40766;-78
2021/06/27 02:47:42;;;;;;;;;;;20.90;79.50;;;;;;4321593;33;20005;-78
2021/06/27 02:50:11;;;;;;;;;;;20.90;79.50;;;;;;4344998;33;27043;-78
2021/06/27 02:52:41;;;;;;;;;;;20.90;79.60;;;;;;4347135;33;20398;-78
2021/06/27 02:55:12;;;;;;;;;;;20.90;79.60;;;;;;4332144;33;26228;-78
2021/06/27 02:57:40;;;;;;;;;;;20.90;79.60;;;;;;4345609;33;44054;-78
2021/06/27 03:00:10;;;;;;;;;;;20.90;79.60;;;;;;4332532;33;44295;-78
2021/06/27 03:02:40;;;;;;;;;;;20.90;79.50;;;;;;4345223;33;42437;-78
2021/06/27 03:05:08;;;;;;;;;;;20.80;79.60;;;;;;4333736;33;20057;-78
2021/06/27 03:07:35;;;;;;;;;;;20.80;79.50;;;;;;4345134;33;42633;-78
2021/06/27 03:10:04;;;;;;;;;;;20.90;79.50;;;;;;4345386;33;43692;-78
2021/06/27 03:12:31;;;;;;;;;;;20.80;79.60;;;;;;4332294;33;44666;-77
2021/06/27 03:14:58;;;;;;;;;;;20.80;79.50;;;;;;4332259;33;44595;-78
2021/06/27 03:17:25;;;;;;;;;;;20.80;79.50;;;;;;4345157;33;39273;-78
2021/06/27 03:19:52;;;;;;;;;;;20.80;79.50;;;;;;4345685;33;44637;-77
2021/06/27 03:22:19;;;;;;;;;;;20.80;79.50;;;;;;4343918;33;43208;-77
2021/06/27 03:24:46;;;;;;;;;;;20.80;79.50;;;;;;4331962;33;42083;-77
2021/06/27 03:27:14;;;;;;;;;;;20.80;79.50;;;;;;4345367;33;44437;-77
2021/06/27 03:29:41;;;;;;;;;;;20.80;79.50;;;;;;4346223;33;20008;-77
2021/06/27 03:32:08;;;;;;;;;;;20.80;79.40;;;;;;4331678;33;43628;-77
2021/06/27 03:34:35;;;;;;;;;;;20.70;79.40;;;;;;4346719;33;20005;-77
2021/06/27 03:37:03;;;;;;;;;;;20.70;79.40;;;;;;4345089;33;43804;-78
2021/06/27 03:39:30;;;;;;;;;;;20.70;79.30;;;;;;4333276;33;20076;-77
2021/06/27 03:42:02;;;;;;;;;;;20.70;79.40;;;;;;4346688;33;20076;-77
2021/06/27 03:44:32;;;;;;;;;;;20.70;79.50;;;;;;4344967;33;37931;-77
2021/06/27 03:46:59;;;;;;;;;;;20.70;79.60;;;;;;4343944;33;44496;-77
2021/06/27 03:49:29;;;;;;;;;;;20.70;79.60;;;;;;4344802;33;43736;-77
2021/06/27 03:51:56;;;;;;;;;;;20.70;79.60;;;;;;4345042;33;43719;-78
2021/06/27 03:54:23;;;;;;;;;;;20.70;79.60;;;;;;4345713;33;25141;-77
2021/06/27 03:56:50;;;;;;;;;;;20.70;79.60;;;;;;4332118;33;20457;-77
2021/06/27 03:59:18;;;;;;;;;;;20.60;79.50;;;;;;4332081;33;33694;-76
2021/06/27 04:01:45;;;;;;;;;;;20.60;79.50;;;;;;4344774;33;20016;-77
2021/06/27 04:04:12;;;;;;;;;;;20.60;79.50;;;;;;4345047;33;43284;-77
2021/06/27 04:06:43;;;;;;;;;;;20.60;79.70;;;;;;4334212;33;20067;-77
2021/06/27 04:09:10;;;;;;;;;;;20.60;79.60;;;;;;4334323;33;43238;-77
2021/06/27 04:11:37;;;;;;;;;;;20.60;79.60;;;;;;4348167;33;20043;-77
2021/06/27 04:14:04;;;;;;;;;;;20.60;79.60;;;;;;4334072;33;43918;-77
2021/06/27 04:16:33;;;;;;;;;;;20.60;79.60;;;;;;4348748;33;20001;-77
2021/06/27 04:19:03;;;;;;;;;;;20.60;79.60;;;;;;4347726;33;44076;-76
2021/06/27 04:21:30;;;;;;;;;;;20.60;79.60;;;;;;4347968;33;44605;-76
2021/06/27 04:23:58;;;;;;;;;;;20.60;79.50;;;;;;4348671;33;20428;-77
2021/06/27 04:26:28;;;;;;;;;;;20.50;79.40;;;;;;4346741;33;43636;-76
2021/06/27 04:28:58;;;;;;;;;;;20.50;79.50;;;;;;4334120;33;42614;-77
2021/06/27 04:31:25;;;;;;;;;;;20.50;79.40;;;;;;4347303;33;43362;-76
2021/06/27 04:33:52;;;;;;;;;;;20.50;79.40;;;;;;4334519;33;44932;-76
2021/06/27 04:36:20;;;;;;;;;;;20.50;79.40;;;;;;4347923;33;21518;-76
2021/06/27 04:38:52;;;;;;;;;;;20.50;79.40;;;;;;4347569;33;44651;-77
2021/06/27 04:41:19;;;;;;;;;;;20.50;79.40;;;;;;4346586;33;42672;-77
2021/06/27 04:43:46;;;;;;;;;;;20.50;79.40;;;;;;4347320;33;44466;-76
2021/06/27 04:46:13;;;;;;;;;;;20.40;79.30;;;;;;4347977;33;30590;-76
2021/06/27 04:48:41;;;;;;;;;;;20.40;79.40;;;;;;4347515;33;44543;-76
2021/06/27 04:51:10;;;;;;;;;;;20.40;79.30;;;;;;4347462;33;43433;-77
2021/06/27 04:53:39;;;;;;;;;;;20.40;79.30;;;;;;4346139;33;43359;-77
2021/06/27 04:56:06;;;;;;;;;;;20.40;79.30;;;;;;4347117;33;42747;-76
2021/06/27 04:58:34;;;;;;;;;;;20.30;79.20;;;;;;4334310;33;20011;-76
2021/06/27 05:01:04;;;;;;;;;;;20.30;79.20;;;;;;4347013;33;20411;-76
2021/06/27 05:03:34;;;;;;;;;;;20.30;79.20;;;;;;4334494;33;20559;-76
2021/06/27 05:06:04;;;;;;;;;;;20.30;79.30;;;;;;4333411;33;43010;-76
2021/06/27 05:08:33;;;;;;;;;;;20.30;79.30;;;;;;4333830;33;43983;-76
2021/06/27 05:11:00;;;;;;;;;;;20.30;79.30;;;;;;4348393;33;20065;-77
2021/06/27 05:13:31;;;;;;;;;;;20.30;79.30;;;;;;4346484;33;20052;-77
2021/06/27 05:16:00;;;;;;;;;;;20.30;79.30;;;;;;4346634;33;44745;-78
2021/06/27 05:18:32;;;;;;;;;;;20.30;79.30;;;;;;4345958;33;37180;-77
2021/06/27 05:21:02;;;;;;;;;;;20.30;79.30;;;;;;4334289;33;44255;-77
2021/06/27 05:23:29;;;;;;;;;;;20.30;79.30;;;;;;4346573;33;42500;-76
2021/06/27 05:25:59;;;;;;;;;;;20.30;79.40;;;;;;4346565;33;44694;-77
2021/06/27 05:28:30;;;;;;;;;;;20.30;79.50;;;;;;4333253;33;44444;-77
2021/06/27 05:30:57;;;;;;;;;;;20.30;79.50;;;;;;4346737;33;43343;-77
2021/06/27 05:33:27;;;;;;;;;;;20.30;79.60;;;;;;4346885;33;43439;-77
2021/06/27 05:35:59;;;;;;;;;;;20.30;79.60;;;;;;4346967;33;28769;-76
2021/06/27 05:38:26;;;;;;;;;;;20.30;79.60;;;;;;4347032;33;44495;-77
2021/06/27 05:40:59;;;;;;;;;;;20.30;79.60;;;;;;4333921;33;29283;-76
2021/06/27 05:43:29;;;;;;;;;;;20.30;79.70;;;;;;4333047;33;45270;-77
2021/06/27 05:45:58;;;;;;;;;;;20.30;79.70;;;;;;4346725;33;44578;-77
2021/06/27 05:48:26;;;;;;;;;;;20.30;79.70;;;;;;4345665;33;43676;-77
2021/06/27 05:50:55;;;;;;;;;;;20.30;79.70;;;;;;4347013;33;24849;-77
2021/06/27 05:53:28;;;;;;;;;;;20.30;79.70;;;;;;4333913;33;20426;-77
2021/06/27 05:56:11;;;;;;;;;;;20.30;79.80;;;;;;4333110;33;45268;-78
2021/06/27 05:58:40;;;;;;;;;;;20.30;79.90;;;;;;4345809;33;43510;-77
2021/06/27 06:01:12;;;;;;;;;;;20.40;80.10;;;;;;4334144;33;20013;-77
2021/06/27 06:03:40;;;;;;;;;;;20.30;80.00;;;;;;4345681;33;44232;-77
2021/06/27 06:06:10;;;;;;;;;;;20.40;80.10;;;;;;4346345;33;43362;-77
2021/06/27 06:08:41;;;;;;;;;;;20.40;80.20;;;;;;4333124;33;44640;-77
2021/06/27 06:11:11;;;;;;;;;;;20.40;80.30;;;;;;4347103;33;20019;-77
2021/06/27 06:13:42;;;;;;;;;;;20.40;80.30;;;;;;4334251;33;20017;-77
2021/06/27 06:16:11;;;;;;;;;;;20.40;80.30;;;;;;4346567;33;44750;-77
2021/06/27 06:18:41;;;;;;;;;;;20.40;80.30;;;;;;4345747;33;44579;-77
2021/06/27 06:21:08;;;;;;;;;;;20.40;80.30;;;;;;4346992;33;20394;-77
2021/06/27 06:23:36;;;;;;;;;;;20.40;80.40;;;;;;4334161;33;20009;-77
2021/06/27 06:26:09;;;;;;;;;;;20.40;80.40;;;;;;4347117;33;20362;-77
2021/06/27 06:28:39;;;;;;;;;;;20.40;80.40;;;;;;4345683;33;44625;-77
2021/06/27 06:31:08;;;;;;;;;;;20.40;80.50;;;;;;4345589;33;20052;-77
2021/06/27 06:33:38;;;;;;;;;;;20.50;80.60;;;;;;4333790;33;20040;-78
2021/06/27 06:36:09;;;;;;;;;;;20.50;80.70;;;;;;4345590;33;44641;-77
2021/06/27 06:38:39;;;;;;;;;;;20.50;80.70;;;;;;4332069;33;42330;-77
2021/06/27 06:41:06;;;;;;;;;;;20.50;80.70;;;;;;4332280;33;45281;-77
2021/06/27 06:43:39;;;;;;;;;;;20.50;80.70;;;;;;4346839;33;20013;-77
2021/06/27 06:46:06;;;;;;;;;;;20.50;80.70;;;;;;4332693;33;43635;-78
2021/06/27 06:48:33;;;;;;;;;;;20.50;80.70;;;;;;4331929;33;44966;-77
2021/06/27 06:51:03;;;;;;;;;;;20.60;80.90;;;;;;4346777;33;20022;-77
2021/06/27 06:53:30;;;;;;;;;;;20.60;80.90;;;;;;4345551;33;43101;-77
2021/06/27 06:55:57;;;;;;;;;;;20.60;81.00;;;;;;4346886;33;20425;-77
2021/06/27 06:58:28;;;;;;;;;;;20.60;81.00;;;;;;4346730;33;20033;-78
2021/06/27 07:00:59;;;;;;;;;;;20.60;81.10;;;;;;4345527;33;44601;-78
2021/06/27 07:03:26;;;;;;;;;;;20.60;81.10;;;;;;4343972;33;43009;-78
2021/06/27 07:05:54;;;;;;;;;;;20.60;81.10;;;;;;4332723;33;22871;-77
2021/06/27 07:08:22;;;;;;;;;;;20.60;81.20;;;;;;4332171;33;43592;-78
2021/06/27 07:10:49;;;;;;;;;;;20.60;81.20;;;;;;4345118;33;23460;-78
2021/06/27 07:13:16;;;;;;;;;;;20.60;81.20;;;;;;4346605;33;20013;-78
2021/06/27 07:15:46;;;;;;;;;;;20.60;81.30;;;;;;4345987;33;20013;-77
2021/06/27 07:18:20;;;;;;;;;;;20.60;81.40;;;;;;4332962;33;43263;-78
2021/06/27 07:20:48;;;;;;;;;;;20.60;81.30;;;;;;4345008;33;44695;-78
2021/06/27 07:23:16;;;;;;;;;;;20.70;81.40;;;;;;4344988;33;42803;-78
2021/06/27 07:25:45;;;;;;;;;;;20.70;81.40;;;;;;4343820;33;44808;-78
2021/06/27 07:28:12;;;;;;;;;;;20.70;81.40;;;;;;4345391;33;44416;-78
2021/06/27 07:30:40;;;;;;;;;;;20.70;81.40;;;;;;4345670;33;43100;-78
2021/06/27 07:33:09;;;;;;;;;;;20.70;81.50;;;;;;4345555;33;20013;-77
2021/06/27 07:35:36;;;;;;;;;;;20.70;81.50;;;;;;4345354;33;43638;-77
2021/06/27 07:38:04;;;;;;;;;;;20.70;81.50;;;;;;4345415;33;43652;-78
2021/06/27 07:40:31;;;;;;;;;;;20.70;81.50;;;;;;4345247;33;44607;-77
2021/06/27 07:42:59;;;;;;;;;;;20.70;81.60;;;;;;4334505;33;43502;-77
2021/06/27 07:45:26;;;;;;;;;;;20.70;82.40;;;;;;4347922;33;43362;-78
2021/06/27 07:47:53;;;;;;;;;;;20.70;81.70;;;;;;4347297;33;27218;-78
2021/06/27 07:50:20;;;;;;;;;;;20.70;81.70;;;;;;4335809;33;20083;-79
2021/06/27 07:52:49;;;;;;;;;;;20.70;81.60;;;;;;4348301;33;43618;-80
2021/06/27 07:55:23;;;;;;;;;;;20.80;81.80;;;;;;4334469;33;43539;-78
2021/06/27 07:57:50;;;;;;;;;;;20.80;81.80;;;;;;4334682;33;44864;-79
2021/06/27 08:00:18;;;;;;;;;;;20.80;81.80;;;;;;4348110;33;45000;-79
2021/06/27 08:02:47;;;;;;;;;;;20.80;81.90;;;;;;4348221;33;35959;-78
2021/06/27 08:05:17;;;;;;;;;;;20.80;81.90;;;;;;4348444;33;20020;-78
2021/06/27 08:07:44;;;;;;;;;;;20.80;81.90;;;;;;4348118;33;44632;-77
2021/06/27 08:10:17;;;;;;;;;;;20.80;81.90;;;;;;4348707;33;20014;-79
2021/06/27 08:12:44;;;;;;;;;;;20.90;82.00;;;;;;4334742;33;43458;-77
2021/06/27 08:15:18;;;;;;;;;;;20.90;82.10;;;;;;4334513;33;44024;-78
2021/06/27 08:17:50;;;;;;;;;;;20.90;82.10;;;;;;4348197;33;20059;-78
2021/06/27 08:20:21;;;;;;;;;;;20.90;82.10;;;;;;4347868;33;42490;-78
2021/06/27 08:22:50;;;;;;;;;;;20.90;82.10;;;;;;4334946;33;43608;-79
2021/06/27 08:25:20;;;;;;;;;;;20.90;82.10;;;;;;4334159;33;43863;-78
2021/06/27 08:27:48;;;;;;;;;;;20.90;82.20;;;;;;4334766;33;44424;-78
2021/06/27 08:30:16;;;;;;;;;;;20.90;82.20;;;;;;4347308;33;42469;-78
2021/06/27 08:32:44;;;;;;;;;;;20.90;82.30;;;;;;4347706;33;44261;-78
2021/06/27 08:35:18;;;;;;;;;;;20.90;82.30;;;;;;4347483;33;43499;-77
2021/06/27 08:37:45;;;;;;;;;;;20.90;82.30;;;;;;4334459;33;43263;-78
2021/06/27 08:40:17;;;;;;;;;;;20.90;82.30;;;;;;4347951;33;20012;-78
2021/06/27 08:42:44;;;;;;;;;;;21.00;82.40;;;;;;4334421;33;44647;-79
2021/06/27 08:45:17;;;;;;;;;;;21.00;82.40;;;;;;4347618;33;44361;-79
2021/06/27 08:47:46;;;;;;;;;;;21.00;82.50;;;;;;4322166;33;42638;-78
2021/06/27 08:50:16;;;;;;;;;;;21.00;82.50;;;;;;4334295;33;27741;-79
2021/06/27 08:52:44;;;;;;;;;;;21.00;82.50;;;;;;4346053;33;44581;-79
2021/06/27 08:55:14;;;;;;;;;;;21.10;82.60;;;;;;4347260;33;43511;-79
2021/06/27 08:57:42;;;;;;;;;;;21.10;82.60;;;;;;4345842;33;43735;-79
2021/06/27 09:00:10;;;;;;;;;;;21.10;82.70;;;;;;4333348;33;44821;-80
2021/06/27 09:02:37;;;;;;;;;;;21.10;82.60;;;;;;4346798;33;43875;-80
2021/06/27 09:05:06;;;;;;;;;;;21.10;82.70;;;;;;4347908;33;20139;-80
2021/06/27 09:07:38;;;;;;;;;;;21.10;82.70;;;;;;4334050;33;43400;-80
2021/06/27 09:10:05;;;;;;;;;;;21.10;82.70;;;;;;4346271;33;42738;-79
2021/06/27 09:12:47;;;;;;;;;;;21.20;82.80;;;;;;4348439;33;20009;-80
2021/06/27 09:15:34;;;;;;;;;;;21.20;82.80;;;;;;4346278;33;44613;-80
2021/06/27 09:18:06;;;;;;;;;;;21.20;82.90;;;;;;4345770;33;44885;-79
2021/06/27 09:20:33;;;;;;;;;;;21.20;82.90;;;;;;4346727;33;38279;-80
2021/06/27 09:23:04;;;;;;;;;;;21.20;82.90;;;;;;4333813;33;44564;-81
2021/06/27 09:25:32;;;;;;;;;;;21.20;82.90;;;;;;4348315;33;20051;-81
2021/06/27 09:28:11;;;;;;;;;;;21.30;83.00;;;;;;4347139;33;43208;-81
2021/06/27 09:30:52;;;;;;;;;;;21.30;83.00;;;;;;4345721;33;43408;-81
2021/06/27 09:33:22;;;;;;;;;;;21.30;83.00;;;;;;4347225;33;20028;-80
2021/06/27 09:35:52;;;;;;;;;;;21.30;83.00;;;;;;4333481;33;43449;-80
2021/06/27 09:38:36;;;;;;;;;;;21.30;83.00;;;;;;4346342;33;23303;-80
2021/06/27 09:41:22;;;;;;;;;;;21.40;83.10;;;;;;4346282;33;26058;-82
2021/06/27 09:43:49;;;;;;;;;;;21.40;83.90;;;;;;4333904;33;24845;-82
2021/06/27 09:46:17;;;;;;;;;;;21.40;83.10;;;;;;4347722;33;20472;-81
2021/06/27 09:48:52;;;;;;;;;;;21.40;83.10;;;;;;4348070;33;20075;-83
2021/06/27 09:51:30;;;;;;;;;;;21.40;83.10;;;;;;4347238;33;20012;-83
2021/06/27 09:53:57;;;;;;;;;;;21.50;83.20;;;;;;4346630;33;43798;-82
2021/06/27 09:56:24;;;;;;;;;;;21.50;83.20;;;;;;4346506;33;43615;-83
2021/06/27 09:58:56;;;;;;;;;;;21.50;83.20;;;;;;4333482;33;40715;-83
2021/06/27 10:01:25;;;;;;;;;;;21.50;83.30;;;;;;4346328;33;29016;-82
2021/06/27 10:03:57;;;;;;;;;;;21.50;83.30;;;;;;4333908;33;20021;-82
2021/06/27 10:06:34;;;;;;;;;;;21.50;83.20;;;;;;4347051;33;27248;-82
2021/06/27 10:09:27;;;;;;;;;;;21.60;83.40;;;;;;4333351;33;32270;-83
2021/06/27 10:11:57;;;;;;;;;;;21.60;83.40;;;;;;4345484;33;43358;-83
2021/06/27 10:14:25;;;;;;;;;;;21.60;83.40;;;;;;4345251;33;43535;-83
2021/06/27 10:16:53;;;;;;;;;;;21.60;83.40;;;;;;4333121;33;21190;-83
2021/06/27 10:19:21;;;;;;;;;;;21.70;83.40;;;;;;4333957;33;20027;-83
2021/06/27 10:21:52;;;;;;;;;;;21.70;83.40;;;;;;4345735;33;20017;-83
2021/06/27 10:24:20;;;;;;;;;;;21.70;83.40;;;;;;4332964;33;43524;-80
2021/06/27 10:26:49;;;;;;;;;;;21.70;83.40;;;;;;4347415;33;20021;-82
2021/06/27 10:29:17;;;;;;;;;;;21.70;83.50;;;;;;4332398;33;45487;-82
2021/06/27 10:31:45;;;;;;;;;;;21.80;83.50;;;;;;4347338;33;20015;-82
2021/06/27 10:34:12;;;;;;;;;;;21.80;83.60;;;;;;4345537;33;43404;-83
2021/06/27 10:36:41;;;;;;;;;;;21.80;83.60;;;;;;4345993;33;43073;-82
2021/06/27 10:39:13;;;;;;;;;;;21.80;83.60;;;;;;4332477;33;43361;-82
2021/06/27 10:41:49;;;;;;;;;;;21.90;83.60;;;;;;4332678;33;44809;-82
2021/06/27 10:44:17;;;;;;;;;;;21.90;83.60;;;;;;4346076;33;44490;-81
2021/06/27 10:46:45;;;;;;;;;;;21.90;83.60;;;;;;4346897;33;20013;-81
2021/06/27 10:49:31;;;;;;;;;;;21.90;83.60;;;;;;4332594;33;43164;-82
2021/06/27 10:52:05;;;;;;;;;;;21.90;83.60;;;;;;4345257;33;31072;-81
2021/06/27 10:54:36;;;;;;;;;;;22.00;83.60;;;;;;4345469;33;21749;-83
2021/06/27 10:57:04;;;;;;;;;;;22.00;83.50;;;;;;4333304;33;20055;-82
2021/06/27 10:59:53;;;;;;;;;;;22.00;83.60;;;;;;4346558;33;20025;-83
2021/06/27 11:02:37;;;;;;;;;;;22.00;83.60;;;;;;4344772;33;28135;-83
2021/06/27 11:05:23;;;;;;;;;;;22.00;83.50;;;;;;4332673;33;20215;-83
2021/06/27 11:07:58;;;;;;;;;;;22.00;83.60;;;;;;4345926;33;20903;-81
2021/06/27 11:10:32;;;;;;;;;;;22.00;83.50;;;;;;4333215;33;21830;-83
2021/06/27 11:13:00;;;;;;;;;;;22.10;83.60;;;;;;4346706;33;20028;-82
2021/06/27 11:15:30;;;;;;;;;;;22.10;83.60;;;;;;4331159;33;42087;-83
2021/06/27 11:18:02;;;;;;;;;;;22.10;83.60;;;;;;4344925;33;27745;-83
2021/06/27 11:20:30;;;;;;;;;;;22.10;83.60;;;;;;4333363;33;20022;-79
2021/06/27 11:22:58;;;;;;;;;;;22.20;83.70;;;;;;4332472;33;20008;-79
2021/06/27 11:25:33;;;;;;;;;;;22.20;83.70;;;;;;4332598;33;28639;-82
2021/06/27 11:28:19;;;;;;;;;;;22.20;83.60;;;;;;4332333;33;28439;-82
2021/06/27 11:31:17;;;;;;;;;;;22.20;83.70;;;;;;4332725;33;20012;-82
2021/06/27 11:33:48;;;;;;;;;;;22.20;83.70;;;;;;4345364;33;20472;-82
2021/06/27 11:36:24;;;;;;;;;;;22.20;83.70;;;;;;4344928;33;22564;-82
2021/06/27 11:38:52;;;;;;;;;;;22.20;83.80;;;;;;4345938;33;26393;-83
2021/06/27 11:41:38;;;;;;;;;;;22.20;83.80;;;;;;4345085;33;20029;-82
2021/06/27 11:44:06;;;;;;;;;;;22.20;83.80;;;;;;4346325;33;20115;-82
2021/06/27 11:46:45;;;;;;;;;;;22.20;83.80;;;;;;4345554;33;20052;-79
2021/06/27 11:49:19;;;;;;;;;;;22.30;84.00;;;;;;4346161;33;20044;-80
2021/06/27 11:51:50;;;;;;;;;;;22.30;84.10;;;;;;4332856;33;26824;-81
2021/06/27 11:54:19;;;;;;;;;;;22.30;84.30;;;;;;4346396;33;20061;-80
2021/06/27 11:57:06;;;;;;;;;;;22.30;84.30;;;;;;4345614;33;24723;-80
2021/06/27 11:59:37;;;;;;;;;;;22.20;84.20;;;;;;4344246;33;22963;-80
2021/06/27 12:02:17;;;;;;;;;;;22.30;84.20;;;;;;4332596;33;20013;-81
2021/06/27 12:04:46;;;;;;;;;;;22.30;84.30;;;;;;4332363;33;27125;-82
2021/06/27 12:07:28;;;;;;;;;;;22.30;84.30;;;;;;4344904;33;24151;-82
2021/06/27 12:09:56;;;;;;;;;;;22.30;84.30;;;;;;4332368;33;23206;-82
2021/06/27 12:12:37;;;;;;;;;;;22.30;84.30;;;;;;4332420;33;24177;-83
2021/06/27 12:15:06;;;;;;;;;;;22.30;84.20;;;;;;4344125;33;25659;-82
2021/06/27 12:17:38;;;;;;;;;;;22.30;84.30;;;;;;4346508;33;20001;-82
2021/06/27 12:20:06;;;;;;;;;;;22.40;84.40;;;;;;4345839;33;20130;-82
2021/06/27 12:22:46;;;;;;;;;;;22.40;84.40;;;;;;4345834;33;20052;-83
2021/06/27 12:25:25;;;;;;;;;;;22.40;84.40;;;;;;4346458;33;20015;-83
2021/06/27 12:27:56;;;;;;;;;;;22.40;84.40;;;;;;4333913;33;22819;-83
2021/06/27 12:30:38;;;;;;;;;;;22.40;84.50;;;;;;4348540;33;24549;-83
2021/06/27 12:33:06;;;;;;;;;;;22.40;84.50;;;;;;4348487;33;24694;-83
2021/06/27 12:35:41;;;;;;;;;;;22.40;84.50;;;;;;4348518;33;20060;-84
2021/06/27 12:38:16;;;;;;;;;;;22.40;84.50;;;;;;4348745;33;20012;-83
2021/06/27 12:40:48;;;;;;;;;;;22.50;84.60;;;;;;4334419;33;26450;-82
2021/06/27 12:43:19;;;;;;;;;;;22.50;84.60;;;;;;4348787;33;20068;-83
2021/06/27 12:46:07;;;;;;;;;;;22.50;84.60;;;;;;4334986;33;20049;-83
2021/06/27 12:48:34;;;;;;;;;;;22.50;84.60;;;;;;4347359;33;20001;-83
2021/06/27 12:51:02;;;;;;;;;;;22.50;84.50;;;;;;4347315;33;20047;-83
2021/06/27 12:53:29;;;;;;;;;;;22.50;84.50;;;;;;4348305;33;20018;-83
2021/06/27 12:56:08;;;;;;;;;;;22.50;84.50;;;;;;4348016;33;21840;-83
2021/06/27 12:58:54;;;;;;;;;;;22.50;84.60;;;;;;4348381;33;20080;-82
2021/06/27 13:01:26;;;;;;;;;;;22.50;84.50;;;;;;4334035;33;28476;-82
2021/06/27 13:03:59;;;;;;;;;;;22.50;84.60;;;;;;4347443;33;20005;-82
2021/06/27 13:06:26;;;;;;;;;;;22.50;84.60;;;;;;4333963;33;26317;-82
2021/06/27 13:09:15;;;;;;;;;;;22.60;84.60;;;;;;4335068;33;20425;-82
2021/06/27 13:12:01;;;;;;;;;;;22.60;84.70;;;;;;4333955;33;29409;-83
2021/06/27 13:14:33;;;;;;;;;;;22.60;84.70;;;;;;4347894;33;25623;-82
2021/06/27 13:17:10;;;;;;;;;;;22.60;84.70;;;;;;4347922;33;22216;-82
2021/06/27 13:19:37;;;;;;;;;;;22.60;84.80;;;;;;4334680;33;20407;-82
2021/06/27 13:22:11;;;;;;;;;;;22.70;84.80;;;;;;4348095;33;20027;-82
2021/06/27 13:24:58;;;;;;;;;;;22.60;84.80;;;;;;4334720;33;20346;-82
2021/06/27 13:27:28;;;;;;;;;;;22.70;84.80;;;;;;4348239;32;20028;-82
2021/06/27 13:30:07;;;;;;;;;;;22.70;84.80;;;;;;4348046;33;20112;-82
2021/06/27 13:32:37;;;;;;;;;;;22.70;84.90;;;;;;4334290;33;20024;-82
2021/06/27 13:35:27;;;;;;;;;;;22.70;84.80;;;;;;4346157;33;20001;-82
2021/06/27 13:37:57;;;;;;;;;;;22.80;84.90;;;;;;4334631;33;20010;-81
2021/06/27 13:40:27;;;;;;;;;;;22.80;84.90;;;;;;4333508;33;20381;-81
2021/06/27 13:42:58;;;;;;;;;;;22.80;84.70;;;;;;4346925;33;20009;-82
2021/06/27 13:45:32;;;;;;;;;;;22.80;84.60;;;;;;4347504;33;21533;-81
2021/06/27 13:48:02;;;;;;;;;;;22.80;84.60;;;;;;4347570;33;20598;-80
2021/06/27 13:50:38;;;;;;;;;;;22.80;84.60;;;;;;4334221;33;20010;-83
2021/06/27 13:53:14;;;;;;;;;;;22.80;85.00;;;;;;4347139;33;20017;-81
2021/06/27 13:55:47;;;;;;;;;;;22.80;85.20;;;;;;4333949;33;20001;-81
2021/06/27 13:58:14;;;;;;;;;;;22.70;85.10;;;;;;4333453;33;26902;-80
2021/06/27 14:00:41;;;;;;;;;;;22.70;85.10;;;;;;4347648;33;20015;-81
2021/06/27 14:03:13;;;;;;;;;;;22.70;85.10;;;;;;4347382;33;20024;-80
2021/06/27 14:05:41;;;;;;;;;;;22.70;85.10;;;;;;4334263;33;19998;-82
2021/06/27 14:08:09;;;;;;;;;;;22.60;84.90;;;;;;4334583;33;20008;-79
2021/06/27 14:10:36;;;;;;;;;;;22.50;85.00;;;;;;4333757;33;20024;-80
2021/06/27 14:13:07;;;;;;;;;;;22.50;85.80;;;;;;4334113;33;20001;-79
2021/06/27 14:15:40;;;;;;;;;;;22.50;85.20;;;;;;4334039;33;20009;-80
2021/06/27 14:18:08;;;;;;;;;;;22.40;85.20;;;;;;4334358;33;20044;-81
2021/06/27 14:20:35;;;;;;;;;;;22.40;85.30;;;;;;4346132;33;20086;-83
2021/06/27 14:23:05;;;;;;;;;;;22.40;85.30;;;;;;4333905;33;20171;-78
2021/06/27 14:25:32;;;;;;;;;;;22.40;85.30;;;;;;4346418;33;20043;-79
2021/06/27 14:28:02;;;;;;;;;;;22.40;85.30;;;;;;4334038;33;20354;-80
2021/06/27 14:30:33;;;;;;;;;;;22.50;85.40;;;;;;4333442;33;25564;-81
2021/06/27 14:33:03;;;;;;;;;;;22.50;85.30;;;;;;4345415;33;20001;-80
2021/06/27 14:35:33;;;;;;;;;;;22.50;85.20;;;;;;4333600;33;20031;-80